createdAt,value
2023-11-30T00:01:54.077Z,10.00
2023-11-30T00:04:22.904Z,9.90
2023-11-30T00:06:51.449Z,10.50
2023-11-30T00:09:19.746Z,11.70
2023-11-30T00:11:48.225Z,12.10
2023-11-30T00:14:16.382Z,11.50
2023-11-30T00:16:44.644Z,13.10
2023-11-30T00:19:12.702Z,15.60
2023-11-30T00:21:40.889Z,27.10
2023-11-30T00:24:08.950Z,20.80
2023-11-30T00:26:37.151Z,17.00
2023-11-30T00:29:06.541Z,14.80
2023-11-30T00:31:34.690Z,14.20
2023-11-30T00:34:02.851Z,14.70
2023-11-30T00:36:31.133Z,13.60
2023-11-30T00:38:59.411Z,13.40
2023-11-30T00:41:27.647Z,14.60
2023-11-30T00:43:56.040Z,13.60
2023-11-30T00:46:24.796Z,13.10
2023-11-30T00:48:53.280Z,12.80
2023-11-30T00:51:21.458Z,20.00
2023-11-30T00:53:49.799Z,19.50
2023-11-30T00:56:18.139Z,17.30
2023-11-30T00:58:46.674Z,14.90
2023-11-30T01:01:14.810Z,15.50
2023-11-30T01:03:42.943Z,14.30
2023-11-30T01:06:11.320Z,13.80
2023-11-30T01:08:39.515Z,16.00
2023-11-30T01:11:07.873Z,14.00
2023-11-30T01:13:35.921Z,13.60
2023-11-30T01:16:04.966Z,13.20
2023-11-30T01:18:33.910Z,13.80
2023-11-30T01:21:02.464Z,14.70
2023-11-30T01:23:30.641Z,13.90
2023-11-30T01:25:58.907Z,14.90
2023-11-30T01:28:27.156Z,15.40
2023-11-30T01:30:56.040Z,15.50
2023-11-30T01:33:24.181Z,19.10
2023-11-30T01:35:52.769Z,18.50
2023-11-30T01:38:21.663Z,20.20
2023-11-30T01:40:49.927Z,18.30
2023-11-30T01:43:19.596Z,17.70
2023-11-30T01:45:50.344Z,18.30
2023-11-30T01:48:22.147Z,15.60
2023-11-30T01:50:50.732Z,16.40
2023-11-30T01:53:19.240Z,17.00
2023-11-30T01:55:49.087Z,14.80
2023-11-30T01:58:18.051Z,14.40
2023-11-30T02:00:46.165Z,14.20
2023-11-30T02:03:14.760Z,15.40
2023-11-30T02:05:43.575Z,15.40
2023-11-30T02:08:11.999Z,16.70
2023-11-30T02:10:40.494Z,16.30
2023-11-30T02:13:09.253Z,17.10
2023-11-30T02:15:37.495Z,16.30
2023-11-30T02:18:05.845Z,15.10
2023-11-30T02:20:34.016Z,14.70
2023-11-30T02:23:02.303Z,14.70
2023-11-30T02:25:30.317Z,15.30
2023-11-30T02:28:00.072Z,13.90
2023-11-30T02:30:28.358Z,14.80
2023-11-30T02:32:56.861Z,14.60
2023-11-30T02:35:25.790Z,15.00
2023-11-30T02:37:54.169Z,14.50
2023-11-30T02:40:22.429Z,13.60
2023-11-30T02:42:50.493Z,13.30
2023-11-30T02:45:18.825Z,15.40
2023-11-30T02:47:47.313Z,14.80
2023-11-30T02:50:15.889Z,12.60
2023-11-30T02:52:44.533Z,14.60
2023-11-30T02:55:12.571Z,15.20
2023-11-30T02:57:41.693Z,15.40
2023-11-30T03:00:10.781Z,14.30
2023-11-30T03:02:38.857Z,14.50
2023-11-30T03:05:07.318Z,15.00
2023-11-30T03:07:35.482Z,15.80
2023-11-30T03:10:04.276Z,17.60
2023-11-30T03:12:32.458Z,16.90
2023-11-30T03:15:00.904Z,15.10
2023-11-30T03:17:29.369Z,15.70
2023-11-30T03:19:57.768Z,15.90
2023-11-30T03:22:25.831Z,15.70
2023-11-30T03:24:53.994Z,16.30
2023-11-30T03:27:23.773Z,17.60
2023-11-30T03:29:52.202Z,16.20
2023-11-30T03:32:20.531Z,15.30
2023-11-30T03:34:49.357Z,16.60
2023-11-30T03:37:17.640Z,17.30
2023-11-30T03:39:45.965Z,17.70
2023-11-30T03:42:14.197Z,17.50
2023-11-30T03:44:42.667Z,15.80
2023-11-30T03:47:11.015Z,16.20
2023-11-30T03:49:39.196Z,15.10
2023-11-30T03:52:07.711Z,14.90
2023-11-30T03:54:36.116Z,16.20
2023-11-30T03:59:33.088Z,25.20
2023-11-30T04:02:01.217Z,23.30
2023-11-30T04:04:30.564Z,24.10
2023-11-30T04:06:59.116Z,25.70
2023-11-30T04:09:27.373Z,25.40
2023-11-30T04:11:56.067Z,22.60
2023-11-30T04:14:24.116Z,19.30
2023-11-30T04:16:52.470Z,17.30
2023-11-30T04:19:20.570Z,16.20
2023-11-30T04:21:49.103Z,17.80
2023-11-30T04:24:17.515Z,21.60
2023-11-30T04:26:46.036Z,24.40
2023-11-30T04:29:14.030Z,37.50
2023-11-30T04:31:42.330Z,46.00
2023-11-30T04:34:11.120Z,43.70
2023-11-30T04:36:39.125Z,43.80
2023-11-30T04:39:07.567Z,32.20
2023-11-30T04:41:36.527Z,29.20
2023-11-30T04:44:05.779Z,23.60
2023-11-30T04:46:35.015Z,18.30
2023-11-30T04:49:03.110Z,16.80
2023-11-30T04:51:31.704Z,15.00
2023-11-30T04:54:00.195Z,14.20
2023-11-30T04:56:28.847Z,16.70
2023-11-30T04:58:57.046Z,17.80
2023-11-30T05:01:25.501Z,19.40
2023-11-30T05:03:54.417Z,19.60
2023-11-30T05:06:22.794Z,17.60
2023-11-30T05:08:51.233Z,15.00
2023-11-30T05:11:19.635Z,15.00
2023-11-30T05:13:47.890Z,15.30
2023-11-30T05:16:16.152Z,15.20
2023-11-30T05:18:44.473Z,14.70
2023-11-30T05:21:12.744Z,14.30
2023-11-30T05:23:40.882Z,17.40
2023-11-30T05:26:08.880Z,15.20
2023-11-30T05:28:37.156Z,18.80
2023-11-30T05:31:06.070Z,15.50
2023-11-30T05:33:34.239Z,13.80
2023-11-30T05:36:02.770Z,14.50
2023-11-30T05:38:30.759Z,13.70
2023-11-30T05:40:58.988Z,15.50
2023-11-30T05:43:27.121Z,15.80
2023-11-30T05:45:55.292Z,15.00
2023-11-30T05:48:23.686Z,14.90
2023-11-30T05:50:51.984Z,14.00
2023-11-30T05:53:20.167Z,12.20
2023-11-30T05:55:48.288Z,11.90
2023-11-30T05:58:16.477Z,12.70
2023-11-30T06:00:44.984Z,13.00
2023-11-30T06:03:13.412Z,13.00
2023-11-30T06:05:41.744Z,11.70
2023-11-30T06:08:09.977Z,12.90
2023-11-30T06:10:39.178Z,12.30
2023-11-30T06:13:09.110Z,12.10
2023-11-30T06:15:37.721Z,14.80
2023-11-30T06:18:06.156Z,15.20
2023-11-30T06:20:34.438Z,15.10
2023-11-30T06:23:02.833Z,14.00
2023-11-30T06:25:31.071Z,14.70
2023-11-30T06:27:59.341Z,13.90
2023-11-30T06:30:27.701Z,14.30
2023-11-30T06:32:55.996Z,14.60
2023-11-30T06:35:24.401Z,15.80
2023-11-30T06:37:52.661Z,17.50
2023-11-30T06:40:20.891Z,16.90
2023-11-30T06:42:49.196Z,17.30
2023-11-30T06:45:17.868Z,15.90
2023-11-30T06:47:46.418Z,16.50
2023-11-30T06:50:14.840Z,16.20
2023-11-30T06:52:43.174Z,14.80
2023-11-30T06:55:11.274Z,16.80
2023-11-30T06:57:39.930Z,16.80
2023-11-30T07:00:12.508Z,16.70
2023-11-30T07:02:41.139Z,15.40
2023-11-30T07:05:09.582Z,15.20
2023-11-30T07:07:37.935Z,14.40
2023-11-30T07:10:08.464Z,14.90
2023-11-30T07:12:36.902Z,13.50
2023-11-30T07:15:06.270Z,14.30
2023-11-30T07:17:34.815Z,14.30
2023-11-30T07:20:03.034Z,13.60
2023-11-30T07:22:31.715Z,12.50
2023-11-30T07:24:59.990Z,13.10
2023-11-30T07:27:28.261Z,13.00
2023-11-30T07:29:56.801Z,13.80
2023-11-30T07:32:25.173Z,14.30
2023-11-30T07:34:53.920Z,13.60
2023-11-30T07:37:23.392Z,14.80
2023-11-30T07:39:51.515Z,16.30
2023-11-30T07:42:29.329Z,16.60
2023-11-30T07:45:04.083Z,14.10
2023-11-30T07:47:32.563Z,14.00
2023-11-30T07:50:00.899Z,12.50
2023-11-30T07:52:30.364Z,12.50
2023-11-30T07:54:58.711Z,11.80
2023-11-30T07:57:27.052Z,11.90
2023-11-30T07:59:55.346Z,10.30
2023-11-30T08:02:23.536Z,10.00
2023-11-30T08:04:51.848Z,9.50
2023-11-30T08:07:20.878Z,12.40
2023-11-30T08:09:48.973Z,9.10
2023-11-30T08:12:17.188Z,8.10
2023-11-30T08:14:45.752Z,7.90
2023-11-30T08:17:13.956Z,8.00
2023-11-30T08:19:42.237Z,7.20
2023-11-30T08:22:12.481Z,8.40
2023-11-30T08:24:42.317Z,6.80
2023-11-30T08:27:10.328Z,6.30
2023-11-30T08:29:38.312Z,9.10
2023-11-30T08:32:06.981Z,7.10
2023-11-30T08:34:35.356Z,7.50
2023-11-30T08:37:03.717Z,9.30
2023-11-30T08:39:32.198Z,7.10
2023-11-30T08:42:00.242Z,7.20
2023-11-30T08:44:28.624Z,8.80
2023-11-30T08:46:57.167Z,7.50
2023-11-30T08:49:25.534Z,8.10
2023-11-30T08:51:54.303Z,8.10
2023-11-30T08:54:22.668Z,7.20
2023-11-30T08:56:51.385Z,7.50
2023-11-30T08:59:20.352Z,7.40
2023-11-30T09:01:50.066Z,6.90
2023-11-30T09:04:19.027Z,8.10
2023-11-30T09:06:47.181Z,7.40
2023-11-30T09:09:15.638Z,7.30
2023-11-30T09:11:46.018Z,7.50
2023-11-30T09:14:16.623Z,8.10
2023-11-30T09:16:44.637Z,7.30
2023-11-30T09:19:12.887Z,7.60
2023-11-30T09:21:41.255Z,7.70
2023-11-30T09:24:11.278Z,8.00
2023-11-30T09:26:40.423Z,8.60
2023-11-30T09:29:10.071Z,8.60
2023-11-30T09:31:44.938Z,8.60
2023-11-30T09:34:13.332Z,8.50
2023-11-30T09:36:41.865Z,8.30
2023-11-30T09:39:10.348Z,8.00
2023-11-30T09:41:41.507Z,9.10
2023-11-30T09:44:13.381Z,8.60
2023-11-30T09:46:42.454Z,8.40
2023-11-30T09:49:11.296Z,8.70
2023-11-30T09:51:42.862Z,8.30
2023-11-30T09:54:11.257Z,8.60
2023-11-30T09:56:39.631Z,8.70
2023-11-30T09:59:08.103Z,8.90
2023-11-30T10:01:36.671Z,8.80
2023-11-30T10:04:18.334Z,8.40
2023-11-30T10:06:49.703Z,8.10
2023-11-30T10:09:17.995Z,8.60
2023-11-30T10:11:46.183Z,8.80
2023-11-30T10:14:14.302Z,8.40
2023-11-30T10:16:42.616Z,9.50
2023-11-30T10:19:14.543Z,8.30
2023-11-30T10:21:43.338Z,8.60
2023-11-30T10:24:11.511Z,8.80
2023-11-30T10:26:44.700Z,8.80
2023-11-30T10:29:16.993Z,8.30
2023-11-30T10:31:48.513Z,7.80
2023-11-30T10:34:23.015Z,8.70
2023-11-30T10:36:52.589Z,9.10
2023-11-30T10:39:24.602Z,9.30
2023-11-30T10:41:56.186Z,9.00
2023-11-30T10:44:30.346Z,8.50
2023-11-30T10:47:00.797Z,8.20
2023-11-30T10:49:30.223Z,8.60
2023-11-30T10:52:03.794Z,8.80
2023-11-30T10:54:50.979Z,8.40
2023-11-30T10:57:22.453Z,9.10
2023-11-30T10:59:59.010Z,8.90
2023-11-30T11:02:39.182Z,8.90
2023-11-30T11:05:14.942Z,8.30
2023-11-30T11:07:47.356Z,8.70
2023-11-30T11:10:46.745Z,8.80
2023-11-30T11:13:23.418Z,8.70
2023-11-30T11:16:02.316Z,8.70
2023-11-30T11:18:34.551Z,8.20
2023-11-30T11:21:03.202Z,8.10
2023-11-30T11:23:42.727Z,9.00
2023-11-30T11:26:14.928Z,8.60
2023-11-30T11:28:43.082Z,8.50
2023-11-30T11:31:12.211Z,8.00
2023-11-30T11:33:44.172Z,9.20
2023-11-30T11:36:15.234Z,9.20
2023-11-30T11:38:43.888Z,8.50
2023-11-30T11:41:12.035Z,9.80
2023-11-30T11:43:40.418Z,10.10
2023-11-30T11:46:08.656Z,9.90
2023-11-30T11:48:37.255Z,8.80
2023-11-30T11:51:05.931Z,9.60
2023-11-30T11:53:42.647Z,9.50
2023-11-30T11:56:12.368Z,9.20
2023-11-30T11:58:46.770Z,9.80
2023-11-30T12:01:15.083Z,9.10
2023-11-30T12:03:49.261Z,10.00
2023-11-30T12:06:28.930Z,9.00
2023-11-30T12:08:57.565Z,9.10
2023-11-30T12:11:27.127Z,9.80
2023-11-30T12:13:55.799Z,10.10
2023-11-30T12:16:24.168Z,9.90
2023-11-30T12:18:52.650Z,9.20
2023-11-30T12:21:22.881Z,10.00
2023-11-30T12:23:51.247Z,10.30
2023-11-30T12:26:19.410Z,9.90
2023-11-30T12:28:47.882Z,9.90
2023-11-30T12:31:16.479Z,10.50
2023-11-30T12:33:44.987Z,8.80
2023-11-30T12:36:15.370Z,10.20
2023-11-30T12:38:43.795Z,10.30
2023-11-30T12:41:12.102Z,10.30
2023-11-30T12:43:40.260Z,10.70
2023-11-30T12:46:10.650Z,9.60
2023-11-30T12:48:39.339Z,10.40
2023-11-30T12:51:10.597Z,9.70
2023-11-30T12:53:39.940Z,9.80
2023-11-30T12:56:08.648Z,10.50
2023-11-30T12:58:37.490Z,11.10
2023-11-30T13:01:06.409Z,10.00
2023-11-30T13:03:35.102Z,9.50
2023-11-30T13:06:04.893Z,9.40
2023-11-30T13:08:33.387Z,8.40
2023-11-30T13:11:01.727Z,9.40
2023-11-30T13:13:37.909Z,9.90
2023-11-30T13:16:11.097Z,10.50
2023-11-30T13:18:40.290Z,10.20
2023-11-30T13:21:09.297Z,10.00
2023-11-30T13:23:37.525Z,10.60
2023-11-30T13:26:06.112Z,9.40
2023-11-30T13:28:40.151Z,9.70
2023-11-30T13:31:13.799Z,10.10
2023-11-30T13:33:42.103Z,8.80
2023-11-30T13:36:11.058Z,9.60
2023-11-30T13:38:40.126Z,10.80
2023-11-30T13:41:08.947Z,9.20
2023-11-30T13:43:37.319Z,10.50
2023-11-30T13:46:07.380Z,9.20
2023-11-30T13:48:35.860Z,9.10
2023-11-30T13:51:05.135Z,9.50
2023-11-30T13:53:34.289Z,10.30
2023-11-30T13:56:05.970Z,12.20
2023-11-30T13:58:34.268Z,10.30
2023-11-30T14:01:02.777Z,13.40
2023-11-30T14:03:31.672Z,12.80
2023-11-30T14:06:00.587Z,11.60
2023-11-30T14:08:30.204Z,11.20
2023-11-30T14:10:58.556Z,9.40
2023-11-30T14:13:26.960Z,12.50
2023-11-30T14:15:55.386Z,12.70
2023-11-30T14:18:23.981Z,13.20
2023-11-30T14:20:52.393Z,15.00
2023-11-30T14:23:22.325Z,16.40
2023-11-30T14:25:50.903Z,16.00
2023-11-30T14:28:20.209Z,14.10
2023-11-30T14:30:49.025Z,15.20
2023-11-30T14:33:18.075Z,16.70
2023-11-30T14:35:46.653Z,18.30
2023-11-30T14:38:15.108Z,16.90
2023-11-30T14:40:43.818Z,16.50
2023-11-30T14:43:12.514Z,16.00
2023-11-30T14:45:41.109Z,14.50
2023-11-30T14:48:09.868Z,13.10
2023-11-30T14:50:38.106Z,15.00
2023-11-30T14:53:06.714Z,16.10
2023-11-30T14:55:35.214Z,21.10
2023-11-30T14:58:05.000Z,19.10
2023-11-30T15:00:35.257Z,17.40
2023-11-30T15:03:09.922Z,17.20
2023-11-30T15:05:40.286Z,14.50
2023-11-30T15:08:08.944Z,12.00
2023-11-30T15:10:37.172Z,14.00
2023-11-30T15:13:05.717Z,12.90
2023-11-30T15:15:33.976Z,13.00
2023-11-30T15:18:02.465Z,13.30
2023-11-30T15:20:31.209Z,14.60
2023-11-30T15:22:59.636Z,16.30
2023-11-30T15:25:27.977Z,17.40
2023-11-30T15:27:56.323Z,19.20
2023-11-30T15:30:25.931Z,19.20
2023-11-30T15:32:54.493Z,17.30
2023-11-30T15:35:22.786Z,17.60
2023-11-30T15:37:52.996Z,19.30
2023-11-30T15:40:22.598Z,17.90
2023-11-30T15:42:52.522Z,16.20
2023-11-30T15:45:24.977Z,17.30
2023-11-30T15:47:54.432Z,17.30
2023-11-30T15:50:22.954Z,16.00
2023-11-30T15:52:52.450Z,22.30
2023-11-30T15:55:20.901Z,21.90
2023-11-30T15:57:49.857Z,23.50
2023-11-30T16:00:21.390Z,27.10
2023-11-30T16:02:50.501Z,19.60
2023-11-30T16:05:19.213Z,19.90
2023-11-30T16:07:47.392Z,17.10
2023-11-30T16:10:15.909Z,16.80
2023-11-30T16:12:44.315Z,21.50
2023-11-30T16:15:13.037Z,25.60
2023-11-30T16:17:41.598Z,25.40
2023-11-30T16:20:12.001Z,20.40
2023-11-30T16:22:41.985Z,17.50
2023-11-30T16:25:12.693Z,18.50
2023-11-30T16:27:45.178Z,17.80
2023-11-30T16:30:14.335Z,20.80
2023-11-30T16:32:42.885Z,22.40
2023-11-30T16:35:13.632Z,21.00
2023-11-30T16:37:42.047Z,19.80
2023-11-30T16:40:12.085Z,20.90
2023-11-30T16:42:40.420Z,18.50
2023-11-30T16:45:09.314Z,19.30
2023-11-30T16:47:39.562Z,17.90
2023-11-30T16:50:10.069Z,17.30
2023-11-30T16:52:38.666Z,19.20
2023-11-30T16:55:07.876Z,16.80
2023-11-30T16:57:37.324Z,18.30
2023-11-30T17:00:07.538Z,17.50
2023-11-30T17:02:36.383Z,15.50
2023-11-30T17:05:05.274Z,16.90
2023-11-30T17:07:33.508Z,18.10
2023-11-30T17:10:01.776Z,16.70
2023-11-30T17:12:30.354Z,17.70
2023-11-30T17:14:58.940Z,17.40
2023-11-30T17:17:27.405Z,15.60
2023-11-30T17:19:55.843Z,16.20
2023-11-30T17:22:24.253Z,17.70
2023-11-30T17:24:53.746Z,17.40
2023-11-30T17:27:23.423Z,17.90
2023-11-30T17:29:51.803Z,16.00
2023-11-30T17:32:20.145Z,17.50
2023-11-30T17:34:48.967Z,17.80
2023-11-30T17:37:17.772Z,21.00
2023-11-30T17:39:45.930Z,18.70
2023-11-30T17:42:14.415Z,19.30
2023-11-30T17:44:42.771Z,20.90
2023-11-30T17:47:16.439Z,20.20
2023-11-30T17:49:45.628Z,19.80
2023-11-30T17:52:14.664Z,20.60
2023-11-30T17:54:42.971Z,18.60
2023-11-30T17:57:11.341Z,19.80
2023-11-30T17:59:39.846Z,20.90
2023-11-30T18:02:08.257Z,21.70
2023-11-30T18:04:36.447Z,20.00
2023-11-30T18:07:08.731Z,20.50
2023-11-30T18:09:36.947Z,20.10
2023-11-30T18:12:06.704Z,20.20
2023-11-30T18:14:35.104Z,21.10
2023-11-30T18:17:05.804Z,23.70
2023-11-30T18:19:34.083Z,31.20
2023-11-30T18:22:02.278Z,22.30
2023-11-30T18:24:31.717Z,20.40
2023-11-30T18:27:03.860Z,19.80
2023-11-30T18:29:32.607Z,19.50
2023-11-30T18:32:01.773Z,21.30
2023-11-30T18:34:30.097Z,22.30
2023-11-30T18:36:58.576Z,21.30
2023-11-30T18:39:26.994Z,18.40
2023-11-30T18:41:56.480Z,16.90
2023-11-30T18:44:27.284Z,17.30
2023-11-30T18:46:56.502Z,18.10
2023-11-30T18:49:25.640Z,18.00
2023-11-30T18:51:54.030Z,17.30
2023-11-30T18:54:22.314Z,17.40
2023-11-30T18:56:50.957Z,16.80
2023-11-30T18:59:19.280Z,17.40
2023-11-30T19:01:48.780Z,16.30
2023-11-30T19:04:17.637Z,16.20
2023-11-30T19:06:45.965Z,16.80
2023-11-30T19:09:14.512Z,16.00
2023-11-30T19:11:46.730Z,17.40
2023-11-30T19:14:15.065Z,16.40
2023-11-30T19:16:44.960Z,15.90
2023-11-30T19:19:13.669Z,16.00
2023-11-30T19:21:43.575Z,16.60
2023-11-30T19:24:15.339Z,17.80
2023-11-30T19:26:45.133Z,16.30
2023-11-30T19:29:16.660Z,16.30
2023-11-30T19:31:47.117Z,16.70
2023-11-30T19:34:16.158Z,16.10
2023-11-30T19:36:44.374Z,18.10
2023-11-30T19:39:15.039Z,16.20
2023-11-30T19:41:44.127Z,18.20
2023-11-30T19:44:14.472Z,17.60
2023-11-30T19:46:48.331Z,17.20
2023-11-30T19:51:45.071Z,17.40
2023-11-30T19:54:13.498Z,18.20
2023-11-30T19:56:42.454Z,19.40
2023-11-30T19:59:10.809Z,19.40
2023-11-30T20:01:39.041Z,16.80
2023-11-30T20:04:07.594Z,18.30
2023-11-30T20:06:38.070Z,18.10
2023-11-30T20:09:06.421Z,17.50
2023-11-30T20:11:36.159Z,16.90
2023-11-30T20:14:04.930Z,17.90
2023-11-30T20:16:33.500Z,17.90
2023-11-30T20:19:02.120Z,17.50
2023-11-30T20:21:30.580Z,17.50
2023-11-30T20:23:59.439Z,18.60
2023-11-30T20:26:27.744Z,18.20
2023-11-30T20:28:56.123Z,18.00
2023-11-30T20:31:24.589Z,18.10
2023-11-30T20:33:53.046Z,18.80
2023-11-30T20:36:22.822Z,18.80
2023-11-30T20:38:51.865Z,19.10
2023-11-30T20:41:20.175Z,18.30
2023-11-30T20:43:50.381Z,17.60
2023-11-30T20:46:20.749Z,18.40
2023-11-30T20:48:49.992Z,17.60
2023-11-30T20:51:20.000Z,17.30
2023-11-30T20:53:48.460Z,17.40
2023-11-30T20:56:16.626Z,17.30
2023-11-30T20:58:46.834Z,17.10
2023-11-30T21:01:17.363Z,16.10
2023-11-30T21:03:45.878Z,17.50
2023-11-30T21:06:14.399Z,16.60
2023-11-30T21:08:42.722Z,17.60
2023-11-30T21:11:11.716Z,16.60
2023-11-30T21:13:39.853Z,15.80
2023-11-30T21:16:09.265Z,17.00
2023-11-30T21:18:38.114Z,17.00
2023-11-30T21:21:07.367Z,16.80
2023-11-30T21:23:35.548Z,17.70
2023-11-30T21:26:04.405Z,16.20
2023-11-30T21:28:32.585Z,17.00
2023-11-30T21:31:01.181Z,16.40
2023-11-30T21:33:31.233Z,17.00
2023-11-30T21:36:00.602Z,16.00
2023-11-30T21:38:28.861Z,15.80
2023-11-30T21:40:57.506Z,15.50
2023-11-30T21:43:26.588Z,17.60
2023-11-30T21:45:55.171Z,16.40
2023-11-30T21:48:24.032Z,16.90
2023-11-30T21:50:53.268Z,15.60
2023-11-30T21:53:21.950Z,16.50
2023-11-30T21:55:50.234Z,15.30
2023-11-30T21:58:19.842Z,17.30
2023-11-30T22:00:48.408Z,18.10
2023-11-30T22:03:18.716Z,16.20
2023-11-30T22:05:48.680Z,17.40
2023-11-30T22:08:17.198Z,21.20
2023-11-30T22:10:45.952Z,15.90
2023-11-30T22:13:14.598Z,16.50
2023-11-30T22:15:43.379Z,16.00
2023-11-30T22:18:11.647Z,15.90
2023-11-30T22:20:45.012Z,14.90
2023-11-30T22:23:14.484Z,14.30
2023-11-30T22:25:42.638Z,15.00
2023-11-30T22:28:11.067Z,14.50
2023-11-30T22:30:39.863Z,14.00
2023-11-30T22:33:08.549Z,13.80
2023-11-30T22:35:36.762Z,13.90
2023-11-30T22:38:05.079Z,14.10
2023-11-30T22:40:33.548Z,13.80
2023-11-30T22:43:04.290Z,13.10
2023-11-30T22:45:33.466Z,11.10
2023-11-30T22:48:01.800Z,11.90
2023-11-30T22:50:30.307Z,11.60
2023-11-30T22:52:59.002Z,11.70
2023-11-30T22:55:27.618Z,12.50
2023-11-30T22:57:56.132Z,11.20
2023-11-30T23:00:25.644Z,11.10
2023-11-30T23:02:54.638Z,11.80
2023-11-30T23:05:23.623Z,10.80
2023-11-30T23:07:52.234Z,9.90
2023-11-30T23:10:22.312Z,10.40
2023-11-30T23:12:51.511Z,10.10
2023-11-30T23:15:19.838Z,10.30
2023-11-30T23:17:48.453Z,9.10
2023-11-30T23:20:16.970Z,21.80
2023-11-30T23:22:45.136Z,29.30
2023-11-30T23:25:13.731Z,14.20
2023-11-30T23:27:42.169Z,9.70
2023-11-30T23:30:10.837Z,9.30
2023-11-30T23:32:39.106Z,9.20
2023-11-30T23:35:08.513Z,9.10
2023-11-30T23:37:36.746Z,9.30
2023-11-30T23:40:06.255Z,10.30
2023-11-30T23:42:34.551Z,11.00
2023-11-30T23:45:04.607Z,10.30
2023-11-30T23:47:32.969Z,10.40
2023-11-30T23:50:01.387Z,10.70
2023-11-30T23:52:29.686Z,10.10
2023-11-30T23:54:58.030Z,11.30
2023-11-30T23:57:26.291Z,11.50
2023-11-30T23:59:55.351Z,11.10
